2021/10/22 08:20 EDDW 220820Z 24022KT 9999 -SHRA BKN017 09/05 Q1006 TEMPO 24020G35KT SHRA BKN014CB